sensor_id;sensor_type;location;lat;lon;timestamp;P1;durP1;ratioP1;P2;durP2;ratioP2
29254;SDS011;16277;48.890;2.306;2023-06-10T00:08:28;3.53;;;3.33;;
29254;SDS011;16277;48.890;2.306;2023-06-10T00:23:34;3.67;;;2.97;;
29254;SDS011;16277;48.890;2.306;2023-06-10T00:38:40;3.27;;;3.17;;
29254;SDS011;16277;48.890;2.306;2023-06-10T00:53:45;3.80;;;2.80;;
29254;SDS011;16277;48.890;2.306;2023-06-10T01:08:52;2.73;;;2.63;;
29254;SDS011;16277;48.890;2.306;2023-06-10T01:24:03;3.00;;;2.87;;
29254;SDS011;16277;48.890;2.306;2023-06-10T01:39:10;2.90;;;2.80;;
29254;SDS011;16277;48.890;2.306;2023-06-10T01:54:17;7.97;;;2.70;;
29254;SDS011;16277;48.890;2.306;2023-06-10T02:09:21;3.20;;;3.00;;
29254;SDS011;16277;48.890;2.306;2023-06-10T02:24:27;3.67;;;3.10;;
29254;SDS011;16277;48.890;2.306;2023-06-10T02:39:31;5.63;;;2.77;;
29254;SDS011;16277;48.890;2.306;2023-06-10T02:54:38;6.90;;;2.67;;
29254;SDS011;16277;48.890;2.306;2023-06-10T03:09:45;3.23;;;3.13;;
29254;SDS011;16277;48.890;2.306;2023-06-10T03:24:50;4.77;;;3.10;;
29254;SDS011;16277;48.890;2.306;2023-06-10T03:39:56;3.07;;;2.83;;
29254;SDS011;16277;48.890;2.306;2023-06-10T03:55:02;10.23;;;2.80;;
29254;SDS011;16277;48.890;2.306;2023-06-10T04:10:08;5.67;;;3.20;;
29254;SDS011;16277;48.890;2.306;2023-06-10T04:25:13;5.97;;;3.50;;
29254;SDS011;16277;48.890;2.306;2023-06-10T04:40:19;4.00;;;2.43;;
29254;SDS011;16277;48.890;2.306;2023-06-10T04:55:24;3.50;;;3.20;;
29254;SDS011;16277;48.890;2.306;2023-06-10T05:10:29;3.27;;;3.00;;
29254;SDS011;16277;48.890;2.306;2023-06-10T05:25:35;7.67;;;3.53;;
29254;SDS011;16277;48.890;2.306;2023-06-10T05:40:40;6.13;;;3.20;;
29254;SDS011;16277;48.890;2.306;2023-06-10T05:55:45;10.17;;;3.43;;
29254;SDS011;16277;48.890;2.306;2023-06-10T06:10:50;8.80;;;3.30;;
29254;SDS011;16277;48.890;2.306;2023-06-10T06:25:54;15.23;;;7.97;;
29254;SDS011;16277;48.890;2.306;2023-06-10T06:40:59;7.03;;;3.23;;
29254;SDS011;16277;48.890;2.306;2023-06-10T06:56:05;3.23;;;2.93;;
29254;SDS011;16277;48.890;2.306;2023-06-10T07:11:10;8.27;;;3.00;;
29254;SDS011;16277;48.890;2.306;2023-06-10T07:26:14;4.60;;;4.30;;
29254;SDS011;16277;48.890;2.306;2023-06-10T07:41:19;4.23;;;3.30;;
29254;SDS011;16277;48.890;2.306;2023-06-10T07:56:24;3.13;;;2.93;;
29254;SDS011;16277;48.890;2.306;2023-06-10T08:11:29;4.37;;;3.33;;
29254;SDS011;16277;48.890;2.306;2023-06-10T08:26:33;7.43;;;2.90;;
29254;SDS011;16277;48.890;2.306;2023-06-10T08:41:40;3.67;;;3.37;;
29254;SDS011;16277;48.890;2.306;2023-06-10T08:56:47;9.90;;;3.20;;
29254;SDS011;16277;48.890;2.306;2023-06-10T09:11:54;2.07;;;1.97;;
29254;SDS011;16277;48.890;2.306;2023-06-10T09:27:05;4.37;;;1.80;;
29254;SDS011;16277;48.890;2.306;2023-06-10T09:42:18;2.43;;;2.20;;
29254;SDS011;16277;48.890;2.306;2023-06-10T09:57:23;2.40;;;2.30;;
29254;SDS011;16277;48.890;2.306;2023-06-10T10:12:28;1.87;;;1.70;;
29254;SDS011;16277;48.890;2.306;2023-06-10T10:27:35;5.90;;;2.40;;
29254;SDS011;16277;48.890;2.306;2023-06-10T10:42:43;2.33;;;2.13;;
29254;SDS011;16277;48.890;2.306;2023-06-10T10:57:54;7.23;;;2.47;;
29254;SDS011;16277;48.890;2.306;2023-06-10T11:13:00;2.25;;;2.15;;
29254;SDS011;16277;48.890;2.306;2023-06-10T11:28:18;2.37;;;2.27;;
29254;SDS011;16277;48.890;2.306;2023-06-10T11:43:23;2.93;;;2.00;;
29254;SDS011;16277;48.890;2.306;2023-06-10T11:58:28;5.90;;;2.17;;
29254;SDS011;16277;48.890;2.306;2023-06-10T12:13:33;4.03;;;3.10;;
29254;SDS011;16277;48.890;2.306;2023-06-10T12:28:38;9.20;;;2.47;;
29254;SDS011;16277;48.890;2.306;2023-06-10T12:43:42;11.17;;;2.67;;
29254;SDS011;16277;48.890;2.306;2023-06-10T12:58:51;1.90;;;1.80;;
29254;SDS011;16277;48.890;2.306;2023-06-10T13:13:55;1.77;;;1.77;;
29254;SDS011;16277;48.890;2.306;2023-06-10T13:29:00;2.60;;;2.50;;
29254;SDS011;16277;48.890;2.306;2023-06-10T13:44:04;2.73;;;1.63;;
29254;SDS011;16277;48.890;2.306;2023-06-10T13:59:09;1.33;;;1.27;;
29254;SDS011;16277;48.890;2.306;2023-06-10T14:14:14;1.80;;;1.70;;
29254;SDS011;16277;48.890;2.306;2023-06-10T14:29:18;1.57;;;1.57;;
29254;SDS011;16277;48.890;2.306;2023-06-10T14:44:23;1.40;;;1.33;;
29254;SDS011;16277;48.890;2.306;2023-06-10T14:59:28;1.17;;;1.07;;
29254;SDS011;16277;48.890;2.306;2023-06-10T15:14:32;0.87;;;0.87;;
29254;SDS011;16277;48.890;2.306;2023-06-10T15:29:37;1.57;;;1.47;;
29254;SDS011;16277;48.890;2.306;2023-06-10T15:44:41;2.77;;;2.20;;
29254;SDS011;16277;48.890;2.306;2023-06-10T15:59:45;5.30;;;1.77;;
29254;SDS011;16277;48.890;2.306;2023-06-10T16:14:50;1.57;;;1.57;;
29254;SDS011;16277;48.890;2.306;2023-06-10T16:29:54;4.63;;;2.10;;
29254;SDS011;16277;48.890;2.306;2023-06-10T16:44:59;3.30;;;2.23;;
29254;SDS011;16277;48.890;2.306;2023-06-10T17:00:05;3.00;;;2.80;;
29254;SDS011;16277;48.890;2.306;2023-06-10T17:15:10;2.80;;;2.50;;
29254;SDS011;16277;48.890;2.306;2023-06-10T17:30:15;5.73;;;2.30;;
29254;SDS011;16277;48.890;2.306;2023-06-10T17:45:19;16.37;;;2.90;;
29254;SDS011;16277;48.890;2.306;2023-06-10T18:00:24;3.03;;;2.93;;
29254;SDS011;16277;48.890;2.306;2023-06-10T18:15:29;3.60;;;3.50;;
29254;SDS011;16277;48.890;2.306;2023-06-10T18:30:37;3.20;;;3.10;;
29254;SDS011;16277;48.890;2.306;2023-06-10T18:45:41;4.03;;;3.70;;
29254;SDS011;16277;48.890;2.306;2023-06-10T19:00:46;3.53;;;3.33;;
29254;SDS011;16277;48.890;2.306;2023-06-10T19:15:50;4.07;;;3.87;;
29254;SDS011;16277;48.890;2.306;2023-06-10T19:30:55;3.47;;;3.37;;
29254;SDS011;16277;48.890;2.306;2023-06-10T19:45:59;4.23;;;4.03;;
29254;SDS011;16277;48.890;2.306;2023-06-10T20:01:04;4.50;;;4.30;;
29254;SDS011;16277;48.890;2.306;2023-06-10T20:16:08;4.27;;;4.07;;
29254;SDS011;16277;48.890;2.306;2023-06-10T20:31:13;11.93;;;4.57;;
29254;SDS011;16277;48.890;2.306;2023-06-10T20:46:18;6.13;;;3.77;;
29254;SDS011;16277;48.890;2.306;2023-06-10T21:01:22;4.33;;;4.03;;
29254;SDS011;16277;48.890;2.306;2023-06-10T21:16:28;3.83;;;3.47;;
29254;SDS011;16277;48.890;2.306;2023-06-10T21:31:33;3.97;;;3.77;;
29254;SDS011;16277;48.890;2.306;2023-06-10T21:46:38;4.63;;;4.23;;
29254;SDS011;16277;48.890;2.306;2023-06-10T22:01:42;3.20;;;3.10;;
29254;SDS011;16277;48.890;2.306;2023-06-10T22:16:47;3.17;;;3.07;;
29254;SDS011;16277;48.890;2.306;2023-06-10T22:31:53;5.30;;;3.70;;
29254;SDS011;16277;48.890;2.306;2023-06-10T22:46:57;4.50;;;4.10;;
29254;SDS011;16277;48.890;2.306;2023-06-10T23:02:02;4.50;;;4.33;;
29254;SDS011;16277;48.890;2.306;2023-06-10T23:17:07;3.53;;;3.43;;
29254;SDS011;16277;48.890;2.306;2023-06-10T23:32:12;3.63;;;3.40;;
29254;SDS011;16277;48.890;2.306;2023-06-10T23:47:17;6.70;;;6.23;;
